createdAt,value
2019-04-22T03:54:29.850Z,4.00
2019-04-22T03:55:26.111Z,4.00
2019-04-22T04:02:16.111Z,4.00
2019-04-22T04:03:16.680Z,4.00
2019-04-22T04:04:19.052Z,4.00
2019-04-22T04:12:25.840Z,20.00
2019-04-22T04:13:58.459Z,24.00
2019-04-22T04:16:04.716Z,28.00
2019-04-22T04:17:36.805Z,32.00
2019-04-22T04:20:24.277Z,52.00
2019-04-22T04:22:54.077Z,64.00
2019-04-22T04:23:50.584Z,72.00
2019-04-22T04:25:05.816Z,80.00
2019-04-22T04:29:54.737Z,120.00
2019-04-22T04:30:42.773Z,128.00
2019-04-22T04:32:18.763Z,148.00
2019-04-22T04:33:05.004Z,156.00
2019-04-22T04:34:43.008Z,172.00
2019-04-22T04:35:49.293Z,184.00
2019-04-22T04:37:51.552Z,216.00
2019-04-22T04:39:18.843Z,236.00
2019-04-22T04:44:22.680Z,312.00
2019-04-22T04:50:58.149Z,416.00
2019-04-22T04:54:35.532Z,472.00
2019-04-22T04:56:02.851Z,492.00
2019-04-22T04:57:26.226Z,516.00
2019-04-22T05:01:08.149Z,572.00
2019-04-22T05:02:33.113Z,596.00
2019-04-22T05:07:55.492Z,668.00
2019-04-22T05:09:13.431Z,680.00
2019-04-22T05:10:01.703Z,696.00
2019-04-22T05:10:58.648Z,708.00
2019-04-22T05:12:25.225Z,736.00
2019-04-22T05:13:49.432Z,764.00
2019-04-22T05:14:44.567Z,780.00
2019-04-22T05:16:22.883Z,804.00
2019-04-22T05:17:02.331Z,824.00
2019-04-22T05:18:26.551Z,840.00
2019-04-22T05:19:37.666Z,856.00
2019-04-22T05:22:28.294Z,888.00
2019-04-22T05:23:56.460Z,904.00
2019-04-22T05:25:13.938Z,916.00
2019-04-22T05:27:50.900Z,936.00
2019-04-22T05:29:19.693Z,944.00
2019-04-22T05:30:39.554Z,952.00
2019-04-22T05:31:44.665Z,960.00
2019-04-22T05:34:21.480Z,960.00
2019-04-22T05:35:52.023Z,972.00
2019-04-22T05:37:11.202Z,984.00
2019-04-22T05:38:38.382Z,996.00
2019-04-22T05:41:02.254Z,1012.00
2019-04-22T05:42:32.215Z,1016.00
2019-04-22T05:43:58.247Z,1020.00
2019-04-22T05:46:46.442Z,1024.00
2019-04-22T05:48:01.235Z,1024.00
2019-04-22T05:49:26.753Z,1024.00
2019-04-22T05:52:09.687Z,1012.00
2019-04-22T05:53:34.202Z,1024.00
2019-04-22T05:54:54.976Z,1040.00
2019-04-22T05:56:20.715Z,1044.00
2019-04-22T05:57:38.367Z,1048.00
2019-04-22T06:00:25.638Z,1084.00
2019-04-22T06:01:54.985Z,1084.00
2019-04-22T06:03:04.048Z,1068.00
2019-04-22T06:04:32.379Z,1080.00
2019-04-22T06:06:05.890Z,1080.00
2019-04-22T06:07:13.683Z,1092.00
2019-04-22T06:08:42.389Z,1088.00
2019-04-22T06:10:04.663Z,1072.00
2019-04-22T06:11:28.425Z,1040.00
2019-04-22T06:12:40.408Z,1056.00
2019-04-22T06:14:02.553Z,1056.00
2019-04-22T06:15:23.476Z,1060.00
2019-04-22T06:16:50.419Z,1044.00
2019-04-22T06:19:33.217Z,1152.00
2019-04-22T06:21:04.038Z,1180.00
2019-04-22T06:22:25.462Z,1188.00
2019-04-22T06:23:40.258Z,1168.00
2019-04-22T06:25:01.133Z,1160.00
2019-04-22T06:27:52.440Z,1204.00
2019-04-22T06:29:13.740Z,1176.00
2019-04-22T06:30:31.099Z,1164.00
2019-04-22T06:33:15.230Z,1220.00
2019-04-22T06:36:02.008Z,1344.00
2019-04-22T06:37:32.424Z,1364.00
2019-04-22T06:38:59.134Z,1348.00
2019-04-22T06:40:07.347Z,1324.00
2019-04-22T06:41:29.936Z,1296.00
2019-04-22T06:43:01.169Z,1240.00
2019-04-22T06:45:41.593Z,1352.00
2019-04-22T06:47:12.873Z,1388.00
2019-04-22T06:48:41.014Z,1372.00
2019-04-22T06:50:07.768Z,1388.00
2019-04-22T06:51:17.483Z,1412.00
2019-04-22T06:52:38.196Z,1428.00
2019-04-22T06:53:59.142Z,1436.00
2019-04-22T06:55:21.125Z,1432.00
2019-04-22T06:56:42.719Z,1432.00
2019-04-22T06:58:04.888Z,1436.00
2019-04-22T06:59:25.153Z,1444.00
2019-04-22T07:00:44.560Z,1436.00
2019-04-22T07:02:18.084Z,1428.00
2019-04-22T07:03:42.814Z,1424.00
2019-04-22T07:04:58.314Z,1412.00
2019-04-22T07:06:20.109Z,1412.00
2019-04-22T07:09:20.719Z,1404.00
2019-04-22T07:11:45.200Z,1376.00
2019-04-22T07:13:13.299Z,1344.00
2019-04-22T07:14:31.541Z,1348.00
2019-04-22T07:16:00.383Z,1352.00
2019-04-22T07:17:15.796Z,1380.00
2019-04-22T07:18:54.492Z,1380.00
2019-04-22T07:19:58.483Z,1372.00
2019-04-22T07:21:19.686Z,1364.00
2019-04-22T07:22:46.390Z,1356.00
2019-04-22T07:24:29.635Z,1360.00
2019-04-22T07:25:06.249Z,1364.00
2019-04-22T07:26:25.229Z,1400.00
2019-04-22T07:27:52.751Z,1392.00
2019-04-22T07:29:13.072Z,1392.00
2019-04-22T07:30:41.215Z,1384.00
2019-04-22T07:32:01.572Z,1356.00
2019-04-22T07:33:27.782Z,1360.00
2019-04-22T07:36:32.141Z,1380.00
2019-04-22T07:37:29.710Z,1368.00
2019-04-22T07:39:50.227Z,1376.00
2019-04-22T07:41:14.718Z,1376.00
2019-04-22T07:45:26.596Z,1388.00
2019-04-22T07:46:54.704Z,1384.00
2019-04-22T07:48:21.908Z,1380.00
2019-04-22T07:51:10.177Z,1372.00
2019-04-22T07:52:21.170Z,1372.00
2019-04-22T07:56:18.746Z,1356.00
2019-04-22T07:59:07.365Z,1352.00
2019-04-22T08:00:33.086Z,1352.00
2019-04-22T08:01:50.157Z,1352.00
2019-04-22T08:03:24.517Z,1352.00
2019-04-22T08:04:49.631Z,1348.00
2019-04-22T08:06:12.301Z,1344.00
2019-04-22T08:07:18.325Z,1344.00
2019-04-22T08:08:38.791Z,1336.00
2019-04-22T08:10:12.473Z,1336.00
2019-04-22T08:11:37.161Z,1332.00
2019-04-22T08:12:47.466Z,1328.00
2019-04-22T08:14:07.210Z,1324.00
2019-04-22T08:15:34.955Z,1320.00
2019-04-22T08:16:53.324Z,1316.00
2019-04-22T08:18:28.280Z,1308.00
2019-04-22T08:19:35.914Z,1300.00
2019-04-22T08:20:59.041Z,1296.00
2019-04-22T08:22:23.364Z,1296.00
2019-04-22T08:24:12.335Z,1296.00
2019-04-22T08:24:47.205Z,1296.00
2019-04-22T08:26:04.903Z,1292.00
2019-04-22T08:27:31.475Z,1292.00
2019-04-22T08:28:53.379Z,1288.00
2019-04-22T08:30:23.529Z,1284.00
2019-04-22T08:31:35.562Z,1280.00
2019-04-22T08:33:05.031Z,1276.00
2019-04-22T08:36:00.785Z,1268.00
2019-04-22T08:36:53.566Z,1268.00
2019-04-22T08:38:07.680Z,1260.00
2019-04-22T08:39:25.306Z,1252.00
2019-04-22T08:40:58.106Z,1244.00
2019-04-22T08:42:17.986Z,1232.00
2019-04-22T08:43:44.451Z,1220.00
2019-04-22T08:46:24.227Z,1200.00
2019-04-22T08:49:00.700Z,1172.00
2019-04-22T08:50:29.829Z,1164.00
2019-04-22T08:51:42.536Z,1156.00
2019-04-22T08:53:09.472Z,1148.00
2019-04-22T08:54:31.972Z,1140.00
2019-04-22T08:55:57.858Z,1136.00
2019-04-22T08:57:20.634Z,1132.00
2019-04-22T09:00:15.435Z,1124.00
2019-04-22T09:01:05.275Z,1120.00
2019-04-22T09:02:26.029Z,1116.00
2019-04-22T09:03:47.054Z,1116.00
2019-04-22T09:07:52.070Z,1104.00
2019-04-22T09:09:11.526Z,1100.00
2019-04-22T09:10:37.974Z,1096.00
2019-04-22T09:12:15.833Z,1096.00
2019-04-22T09:13:03.528Z,1092.00
2019-04-22T09:14:26.138Z,1096.00
2019-04-22T09:32:09.397Z,1088.00
2019-04-22T09:33:27.218Z,1084.00
2019-04-22T09:34:47.052Z,1084.00
2019-04-22T09:37:34.115Z,1084.00
2019-04-22T09:39:12.132Z,1084.00
2019-04-22T09:40:02.738Z,1084.00
2019-04-22T09:41:14.118Z,1084.00
2019-04-22T09:42:39.321Z,1084.00
2019-04-22T09:45:15.128Z,1084.00
2019-04-22T09:48:08.341Z,1080.00
2019-04-22T09:49:28.344Z,1084.00
2019-04-22T09:50:48.146Z,1084.00
2019-04-22T09:52:13.074Z,1084.00
2019-04-22T09:55:00.257Z,1084.00
2019-04-22T09:56:18.026Z,1088.00
2019-04-22T09:57:39.790Z,1084.00
2019-04-22T09:59:13.948Z,1080.00
2019-04-22T10:00:25.422Z,1084.00
2019-04-22T10:02:00.382Z,1084.00
2019-04-22T10:03:13.905Z,1084.00
2019-04-22T10:04:33.586Z,1088.00
2019-04-22T10:05:58.253Z,1088.00
2019-04-22T10:07:21.047Z,1088.00
2019-04-22T10:08:50.885Z,1084.00
2019-04-22T10:10:15.026Z,1084.00
2019-04-22T10:11:31.055Z,1088.00
2019-04-22T10:12:42.851Z,1088.00
2019-04-22T10:14:05.870Z,1084.00
2019-04-22T10:15:25.192Z,1084.00
2019-04-22T10:16:50.701Z,1088.00
2019-04-22T10:18:09.301Z,1088.00
2019-04-22T10:19:39.314Z,1088.00
2019-04-22T10:21:00.745Z,1088.00
2019-04-22T10:23:37.622Z,1092.00
2019-04-22T10:25:05.128Z,1092.00
2019-04-22T10:26:30.887Z,1096.00
2019-04-22T10:27:53.629Z,1100.00
2019-04-22T10:30:39.084Z,1096.00
2019-04-22T10:33:15.232Z,1096.00
2019-04-22T10:34:26.937Z,1100.00
2019-04-22T10:35:37.415Z,1100.00
2019-04-22T10:37:38.618Z,1096.00
2019-04-22T10:38:37.275Z,1096.00
2019-04-22T10:39:45.877Z,1100.00
2019-04-22T10:41:00.845Z,1100.00
2019-04-22T10:41:59.481Z,1104.00
2019-04-22T10:42:59.458Z,1104.00
2019-04-22T10:43:59.482Z,1104.00
2019-04-22T10:45:00.972Z,1104.00
2019-04-22T10:45:59.912Z,1104.00
2019-04-22T10:47:00.043Z,1104.00
2019-04-22T10:48:01.398Z,1104.00
2019-04-22T10:49:00.022Z,1100.00
2019-04-22T10:50:00.675Z,1100.00
2019-04-22T10:50:59.355Z,1100.00
2019-04-22T10:52:00.409Z,1100.00
2019-04-22T10:52:59.430Z,1100.00
2019-04-22T10:53:59.723Z,1104.00
2019-04-22T10:54:59.318Z,1104.00
2019-04-22T10:56:00.938Z,1100.00
2019-04-22T10:56:59.287Z,1100.00
2019-04-22T10:59:00.455Z,1108.00
2019-04-22T11:00:00.706Z,1108.00
2019-04-22T11:01:00.189Z,1108.00
2019-04-22T11:01:59.438Z,1108.00
2019-04-22T11:03:00.114Z,1104.00
2019-04-22T11:03:59.543Z,1104.00
2019-04-22T11:04:59.203Z,1108.00
2019-04-22T11:05:59.404Z,1104.00
2019-04-22T11:07:03.758Z,1104.00
2019-04-22T11:08:31.595Z,1108.00
2019-04-22T11:09:51.760Z,1108.00
2019-04-22T11:11:18.989Z,1108.00
2019-04-22T11:12:31.904Z,1108.00
2019-04-22T11:13:28.284Z,1108.00
2019-04-22T11:14:28.591Z,1108.00
2019-04-22T11:15:28.754Z,1112.00
2019-04-22T11:16:27.897Z,1112.00
2019-04-22T11:17:27.431Z,1108.00
2019-04-22T11:18:27.481Z,1104.00
2019-04-22T11:19:27.809Z,1108.00
2019-04-22T11:20:27.437Z,1108.00
2019-04-22T11:21:27.502Z,1104.00
2019-04-22T11:22:31.547Z,1108.00
2019-04-22T11:23:50.423Z,1104.00
2019-04-22T11:24:50.702Z,1108.00
2019-04-22T11:25:50.016Z,1104.00
2019-04-22T11:26:49.464Z,1108.00
2019-04-22T11:27:49.587Z,1108.00
2019-04-22T11:28:49.723Z,1108.00
2019-04-22T11:29:49.782Z,1104.00
2019-04-22T11:30:50.404Z,1100.00
2019-04-22T11:31:50.517Z,1104.00
2019-04-22T11:32:50.635Z,1104.00
2019-04-22T11:33:50.279Z,1108.00
2019-04-22T11:34:49.381Z,1112.00
2019-04-22T11:35:50.107Z,1108.00
2019-04-22T11:36:50.564Z,1108.00
2019-04-22T11:37:50.673Z,1104.00
2019-04-22T11:38:55.832Z,1104.00
2019-04-22T11:40:19.347Z,1104.00
2019-04-22T11:41:33.843Z,1108.00
2019-04-22T11:42:34.331Z,1108.00
2019-04-22T11:43:34.713Z,1104.00
2019-04-22T11:44:35.299Z,1100.00
2019-04-22T11:45:33.363Z,1100.00
2019-04-22T11:46:33.673Z,1100.00
2019-04-22T11:47:33.336Z,1096.00
2019-04-22T11:48:33.973Z,1096.00
2019-04-22T11:49:34.186Z,1096.00
2019-04-22T11:50:33.614Z,1092.00
2019-04-22T11:51:33.848Z,1092.00
2019-04-22T11:52:33.299Z,1092.00
2019-04-22T11:53:34.586Z,1088.00
2019-04-22T11:54:34.635Z,1088.00
2019-04-22T11:55:33.229Z,1088.00
2019-04-22T11:56:34.727Z,1088.00
2019-04-22T11:57:33.237Z,1084.00
2019-04-22T11:58:33.484Z,1080.00
2019-04-22T11:59:33.182Z,1076.00
2019-04-22T12:00:34.774Z,1076.00
2019-04-22T12:01:33.157Z,1076.00
2019-04-22T12:02:33.199Z,1072.00
2019-04-22T12:03:33.843Z,1068.00
2019-04-22T12:04:33.973Z,1068.00
2019-04-22T12:05:34.306Z,1052.00
2019-04-22T12:06:33.760Z,1056.00
2019-04-22T12:07:36.297Z,1060.00
2019-04-22T12:08:34.041Z,1052.00
2019-04-22T12:09:33.354Z,1052.00
2019-04-22T12:10:41.135Z,1064.00
2019-04-22T12:11:55.939Z,1064.00
2019-04-22T12:12:55.561Z,1064.00
2019-04-22T12:13:55.739Z,1064.00
2019-04-22T12:14:54.542Z,1068.00
2019-04-22T12:15:55.492Z,1068.00
2019-04-22T12:16:55.310Z,1068.00
2019-04-22T12:17:55.287Z,1068.00
2019-04-22T12:18:55.493Z,1064.00
2019-04-22T12:19:55.720Z,1060.00
2019-04-22T12:20:55.237Z,1052.00
2019-04-22T12:21:55.170Z,1048.00
2019-04-22T12:22:54.406Z,1040.00
2019-04-22T12:23:54.994Z,1032.00
2019-04-22T12:24:54.522Z,1032.00
2019-04-22T12:26:02.076Z,1036.00
2019-04-22T12:27:18.613Z,1032.00
2019-04-22T12:28:17.176Z,1028.00
2019-04-22T12:29:17.174Z,1032.00
2019-04-22T12:30:16.714Z,1040.00
2019-04-22T12:31:17.662Z,1036.00
2019-04-22T12:32:17.781Z,1040.00
2019-04-22T12:33:17.017Z,1036.00
2019-04-22T12:34:17.307Z,1040.00
2019-04-22T12:35:17.648Z,1044.00
2019-04-22T12:36:16.337Z,1044.00
2019-04-22T12:37:25.787Z,1044.00
2019-04-22T12:38:39.942Z,1044.00
2019-04-22T12:39:39.251Z,1044.00
2019-04-22T12:40:47.613Z,1048.00
2019-04-22T12:42:02.494Z,1052.00
2019-04-22T12:43:04.713Z,1052.00
2019-04-22T12:44:01.091Z,1052.00
2019-04-22T12:45:02.353Z,1056.00
2019-04-22T12:46:02.346Z,1056.00
2019-04-22T12:47:02.631Z,1056.00
2019-04-22T12:48:02.118Z,1056.00
2019-04-22T12:49:02.369Z,1056.00
2019-04-22T12:50:08.857Z,1056.00
2019-04-22T12:51:23.073Z,1040.00
2019-04-22T12:52:32.381Z,1040.00
2019-04-22T12:53:46.166Z,1036.00
2019-04-22T12:54:44.684Z,1040.00
2019-04-22T12:55:45.921Z,1040.00
2019-04-22T12:56:45.801Z,1032.00
2019-04-22T12:57:44.414Z,1008.00
2019-04-22T12:58:45.758Z,1040.00
2019-04-22T12:59:45.714Z,1032.00
2019-04-22T13:00:44.931Z,1028.00
2019-04-22T13:01:44.729Z,1016.00
2019-04-22T13:02:45.003Z,1020.00
2019-04-22T13:03:44.697Z,1020.00
2019-04-22T13:04:45.901Z,1020.00
2019-04-22T13:05:45.140Z,1008.00
2019-04-22T13:06:45.837Z,1016.00
2019-04-22T13:07:44.310Z,1008.00
2019-04-22T13:08:45.581Z,1008.00
2019-04-22T13:09:45.389Z,1008.00
2019-04-22T13:10:53.354Z,1008.00
2019-04-22T13:12:06.869Z,1012.00
2019-04-22T13:13:07.142Z,1008.00
2019-04-22T13:14:07.183Z,1008.00
2019-04-22T13:15:07.849Z,1012.00
2019-04-22T13:16:07.005Z,1008.00
2019-04-22T13:17:06.319Z,1000.00
2019-04-22T13:18:16.949Z,1000.00
2019-04-22T13:19:30.167Z,996.00
2019-04-22T13:20:28.405Z,992.00
2019-04-22T13:21:28.933Z,992.00
2019-04-22T13:22:28.353Z,988.00
2019-04-22T13:23:29.662Z,984.00
2019-04-22T13:24:28.335Z,988.00
2019-04-22T13:25:30.316Z,992.00
2019-04-22T13:26:29.731Z,988.00
2019-04-22T13:27:29.047Z,996.00
2019-04-22T13:28:29.274Z,996.00
2019-04-22T13:29:28.286Z,1000.00
2019-04-22T13:30:28.522Z,1008.00
2019-04-22T13:31:28.903Z,1012.00
2019-04-22T13:32:28.914Z,1016.00
2019-04-22T13:33:28.706Z,1016.00
2019-04-22T13:34:37.395Z,1016.00
2019-04-22T13:35:52.085Z,1020.00
2019-04-22T13:36:50.475Z,1024.00
2019-04-22T13:37:51.029Z,1024.00
2019-04-22T13:38:51.393Z,1024.00
2019-04-22T13:39:50.663Z,1024.00
2019-04-22T13:41:12.491Z,1028.00
2019-04-22T13:42:19.324Z,1024.00
2019-04-22T13:43:34.865Z,1024.00
2019-04-22T13:44:35.565Z,1024.00
2019-04-22T13:45:36.094Z,1016.00
2019-04-22T13:46:35.609Z,1008.00
2019-04-22T13:47:50.167Z,1004.00
2019-04-22T13:49:23.950Z,996.00
2019-04-22T13:50:49.522Z,988.00
2019-04-22T13:52:15.568Z,992.00
2019-04-22T13:56:17.304Z,980.00
2019-04-22T13:57:35.912Z,988.00
2019-04-22T13:58:48.530Z,984.00
2019-04-22T14:00:00.161Z,988.00
2019-04-22T14:00:58.550Z,988.00
2019-04-22T14:01:58.801Z,988.00
2019-04-22T14:02:58.212Z,988.00
2019-04-22T14:03:58.765Z,992.00
2019-04-22T14:04:58.856Z,992.00
2019-04-22T14:05:58.525Z,976.00
2019-04-22T14:06:58.753Z,984.00
2019-04-22T14:07:59.373Z,992.00
2019-04-22T14:08:59.157Z,992.00
2019-04-22T14:09:58.272Z,992.00
2019-04-22T14:11:10.991Z,988.00
2019-04-22T14:12:21.296Z,992.00
2019-04-22T14:13:19.809Z,988.00
2019-04-22T14:14:20.018Z,992.00
2019-04-22T14:15:20.138Z,984.00
2019-04-22T14:16:19.657Z,980.00
2019-04-22T14:17:20.839Z,980.00
2019-04-22T14:18:21.032Z,976.00
2019-04-22T14:19:20.300Z,980.00
2019-04-22T14:20:20.662Z,984.00
2019-04-22T14:21:20.902Z,980.00
2019-04-22T14:22:20.025Z,976.00
2019-04-22T14:23:20.482Z,984.00
2019-04-22T14:24:19.852Z,988.00
2019-04-22T14:25:20.727Z,988.00
2019-04-22T14:26:19.712Z,984.00
2019-04-22T14:27:32.050Z,984.00
2019-04-22T14:28:41.703Z,988.00
2019-04-22T14:29:41.943Z,988.00
2019-04-22T14:30:42.526Z,988.00
2019-04-22T14:31:42.483Z,992.00
2019-04-22T14:32:42.110Z,988.00
2019-04-22T14:33:46.276Z,992.00
2019-04-22T14:35:03.319Z,988.00
2019-04-22T14:36:04.668Z,988.00
2019-04-22T14:37:03.613Z,988.00
2019-04-22T14:38:04.218Z,992.00
2019-04-22T14:39:03.957Z,988.00
2019-04-22T14:40:08.782Z,988.00
2019-04-22T14:41:51.473Z,988.00
2019-04-22T14:43:05.915Z,988.00
2019-04-22T14:46:06.973Z,988.00
2019-04-22T14:47:26.316Z,984.00
2019-04-22T14:50:04.834Z,980.00
2019-04-22T14:51:27.736Z,980.00
2019-04-22T14:54:10.128Z,960.00
2019-04-22T14:55:23.247Z,960.00
2019-04-22T14:56:40.387Z,956.00
2019-04-22T14:57:40.396Z,948.00
2019-04-22T14:58:40.752Z,956.00
2019-04-22T15:14:55.748Z,916.00
2019-04-22T15:15:58.651Z,912.00
2019-04-22T15:16:57.083Z,912.00
2019-04-22T15:17:56.720Z,908.00
2019-04-22T15:18:55.812Z,908.00
2019-04-22T15:19:56.068Z,900.00
2019-04-22T15:20:56.524Z,896.00
2019-04-22T15:21:56.623Z,884.00
2019-04-22T15:22:56.687Z,876.00
2019-04-22T15:23:56.370Z,872.00
2019-04-22T15:24:56.668Z,860.00
2019-04-22T15:25:56.785Z,860.00
2019-04-22T15:26:56.352Z,856.00
2019-04-22T15:27:55.587Z,844.00
2019-04-22T15:28:55.582Z,844.00
2019-04-22T15:29:57.090Z,836.00
2019-04-22T15:30:55.690Z,836.00
2019-04-22T15:31:55.805Z,840.00
2019-04-22T15:32:57.098Z,840.00
2019-04-22T15:33:56.420Z,844.00
2019-04-22T15:34:55.522Z,840.00
2019-04-22T15:35:55.660Z,840.00
2019-04-22T15:36:55.992Z,836.00
2019-04-22T15:37:55.508Z,832.00
2019-04-22T15:38:55.469Z,832.00
2019-04-22T15:39:56.807Z,828.00
2019-04-22T15:40:56.656Z,824.00
2019-04-22T15:42:01.481Z,800.00
2019-04-22T15:43:17.467Z,788.00
2019-04-22T15:44:17.756Z,816.00
2019-04-22T15:45:18.786Z,828.00
2019-04-22T15:46:20.077Z,824.00
2019-04-22T15:47:18.667Z,824.00
2019-04-22T15:48:18.731Z,816.00
2019-04-22T15:49:18.149Z,812.00
2019-04-22T15:50:18.873Z,804.00
2019-04-22T15:51:18.517Z,796.00
2019-04-22T15:52:18.809Z,792.00
2019-04-22T15:53:18.048Z,800.00
2019-04-22T15:54:17.333Z,800.00
2019-04-22T15:55:18.551Z,792.00
2019-04-22T15:56:18.506Z,788.00
2019-04-22T15:57:17.311Z,792.00
2019-04-22T15:58:17.595Z,788.00
2019-04-22T15:59:39.951Z,792.00
2019-04-22T16:00:51.718Z,788.00
2019-04-22T16:02:02.671Z,792.00
2019-04-22T16:03:04.248Z,792.00
2019-04-22T16:04:02.759Z,792.00
2019-04-22T16:05:02.729Z,800.00
2019-04-22T16:06:02.205Z,800.00
2019-04-22T16:07:01.407Z,800.00
2019-04-22T16:08:01.406Z,804.00
2019-04-22T16:09:02.707Z,792.00
2019-04-22T16:10:01.823Z,784.00
2019-04-22T16:11:02.007Z,780.00
2019-04-22T16:12:13.659Z,788.00
2019-04-22T16:13:27.313Z,768.00
2019-04-22T16:14:30.907Z,772.00
2019-04-22T16:15:46.749Z,780.00
2019-04-22T16:16:46.331Z,760.00
2019-04-22T16:17:46.724Z,744.00
2019-04-22T16:18:46.472Z,736.00
2019-04-22T16:19:46.710Z,720.00
2019-04-22T16:20:46.149Z,716.00
2019-04-22T16:21:51.791Z,696.00
2019-04-22T16:23:07.875Z,692.00
2019-04-22T16:24:09.063Z,676.00
2019-04-22T16:25:08.905Z,672.00
2019-04-22T16:26:07.796Z,656.00
2019-04-22T16:27:08.766Z,644.00
2019-04-22T16:28:08.878Z,640.00
2019-04-22T16:29:07.596Z,632.00
2019-04-22T16:30:07.751Z,624.00
2019-04-22T16:31:07.528Z,616.00
2019-04-22T16:32:07.516Z,608.00
2019-04-22T16:33:07.853Z,600.00
2019-04-22T16:34:08.120Z,604.00
2019-04-22T16:35:08.695Z,592.00
2019-04-22T16:36:08.862Z,592.00
2019-04-22T16:37:07.471Z,584.00
2019-04-22T16:38:08.730Z,576.00
2019-04-22T16:39:08.892Z,576.00
2019-04-22T16:40:09.198Z,580.00
2019-04-22T16:41:08.526Z,576.00
2019-04-22T16:42:08.813Z,576.00
2019-04-22T16:43:09.303Z,568.00
2019-04-22T16:44:08.788Z,548.00
2019-04-22T16:45:07.644Z,540.00
2019-04-22T16:46:07.652Z,528.00
2019-04-22T16:47:08.039Z,528.00
2019-04-22T16:48:07.512Z,516.00
2019-04-22T16:49:07.603Z,508.00
2019-04-22T16:50:08.104Z,500.00
2019-04-22T16:51:07.304Z,496.00
2019-04-22T16:52:07.988Z,488.00
2019-04-22T16:53:08.283Z,480.00
2019-04-22T16:54:08.543Z,476.00
2019-04-22T16:55:08.615Z,476.00
2019-04-22T16:56:08.695Z,472.00
2019-04-22T16:57:08.148Z,476.00
2019-04-22T16:59:08.661Z,484.00
2019-04-22T17:00:08.769Z,492.00
2019-04-22T17:01:07.211Z,500.00
2019-04-22T17:02:08.473Z,516.00
2019-04-22T17:03:07.177Z,528.00
2019-04-22T17:04:07.156Z,540.00
2019-04-22T17:05:07.428Z,544.00
2019-04-22T17:06:07.852Z,548.00
2019-04-22T17:07:07.797Z,552.00
2019-04-22T17:09:07.121Z,556.00
2019-04-22T17:10:08.261Z,560.00
2019-04-22T17:11:07.508Z,556.00
2019-04-22T17:12:07.918Z,560.00
2019-04-22T17:13:13.065Z,560.00
2019-04-22T17:14:35.976Z,560.00
2019-04-22T17:15:51.535Z,548.00
2019-04-22T17:16:52.728Z,544.00
2019-04-22T17:17:51.763Z,540.00
2019-04-22T17:18:52.208Z,532.00
2019-04-22T17:19:51.517Z,528.00
2019-04-22T17:20:52.876Z,516.00
2019-04-22T17:21:51.464Z,512.00
2019-04-22T17:22:51.737Z,508.00
2019-04-22T17:23:51.805Z,500.00
2019-04-22T17:24:51.435Z,488.00
2019-04-22T17:25:52.464Z,480.00
2019-04-22T17:26:52.584Z,472.00
2019-04-22T17:27:51.979Z,464.00
2019-04-22T17:28:51.431Z,456.00
2019-04-22T17:29:52.479Z,452.00
2019-04-22T17:30:51.970Z,444.00
2019-04-22T17:31:58.321Z,440.00
2019-04-22T17:33:14.640Z,428.00
2019-04-22T17:34:13.896Z,424.00
2019-04-22T17:36:14.022Z,404.00
2019-04-22T17:38:46.455Z,384.00
2019-04-22T17:40:18.302Z,372.00
2019-04-22T17:42:58.952Z,348.00
2019-04-22T17:44:37.020Z,336.00
2019-04-22T17:45:54.055Z,328.00
2019-04-22T17:47:04.557Z,320.00
2019-04-22T17:48:38.347Z,316.00
2019-04-22T17:50:05.047Z,308.00
2019-04-22T17:51:27.842Z,300.00
2019-04-22T17:52:39.230Z,292.00
2019-04-22T17:55:34.986Z,280.00
2019-04-22T17:56:49.858Z,276.00
2019-04-22T17:58:16.104Z,272.00
2019-04-22T17:59:34.348Z,264.00
2019-04-22T18:00:52.172Z,256.00
2019-04-22T18:02:09.661Z,248.00
2019-04-22T18:03:28.039Z,236.00
2019-04-22T18:06:04.976Z,216.00
2019-04-22T18:09:01.930Z,192.00
2019-04-22T18:11:51.117Z,168.00
2019-04-22T18:14:45.878Z,148.00
2019-04-22T18:15:54.853Z,136.00
2019-04-22T18:17:23.754Z,128.00
2019-04-22T18:18:42.899Z,120.00
2019-04-22T18:19:58.363Z,108.00
2019-04-22T18:21:25.643Z,100.00
2019-04-22T18:22:38.179Z,92.00
2019-04-22T18:24:02.727Z,84.00
2019-04-22T18:26:53.443Z,72.00
2019-04-22T18:28:17.520Z,68.00
2019-04-22T18:32:09.915Z,48.00
2019-04-22T18:33:37.109Z,44.00
2019-04-22T18:37:48.348Z,32.00
2019-04-22T18:39:19.763Z,28.00
2019-04-22T18:40:30.798Z,24.00
2019-04-22T18:44:43.195Z,16.00
2019-04-22T18:47:18.468Z,12.00
2019-04-22T18:48:54.241Z,8.00
2019-04-22T18:50:16.464Z,8.00
2019-04-22T18:53:17.132Z,4.00
2019-04-22T18:58:18.857Z,4.00
2019-04-22T18:59:31.251Z,4.00
2019-04-22T19:00:48.294Z,4.00
